Airport Name : Rabil

Other Name : Rabil

ICAO : GVBA

IATA : BVC

FAA :

Latitude : 16.136531

Longitude : -22.888897

Country : Cape Verde

Local Date and Time : 2/24/2018 3:09:00 PM

 

TAF (Terminal Aerodrome Forecast)

TAF GVBA 241100Z 2412/2518 25010KT 9999 FEW015 TEMPO 2500/2508 VRB04KT

 

METAR (METeorological Aerodrome Report)

GVBA 241600Z 25010KT 9999 FEW014 23/16 Q1011 NOSIG

GVBA 241500Z 29008KT 9999 FEW014 24/16 Q1011 NOSIG

GVBA 241400Z 27008KT 9999 FEW014 23/16 Q1012 NOSIG

GVBA 241300Z 27008KT 9999 FEW014 23/16 Q1012 NOSIG